sensor_id;sensor_type;location;lat;lon;timestamp;pressure;altitude;pressure_sealevel;temperature;humidity
69909;BME280;57190;47.918;8.112;2023-01-30T00:01:05;91261.00;;;-5.85;76.82
69909;BME280;57190;47.918;8.112;2023-01-30T00:03:31;91253.84;;;-5.83;77.96
69909;BME280;57190;47.918;8.112;2023-01-30T00:05:57;91250.44;;;-5.84;77.90
69909;BME280;57190;47.918;8.112;2023-01-30T00:08:22;91257.28;;;-5.82;76.76
69909;BME280;57190;47.918;8.112;2023-01-30T00:10:48;91249.31;;;-5.81;77.19
69909;BME280;57190;47.918;8.112;2023-01-30T00:13:14;91233.41;;;-5.78;77.17
69909;BME280;57190;47.918;8.112;2023-01-30T00:15:40;91241.84;;;-5.84;76.96
69909;BME280;57190;47.918;8.112;2023-01-30T00:18:06;91228.84;;;-5.84;77.23
69909;BME280;57190;47.918;8.112;2023-01-30T00:20:31;91226.06;;;-5.91;75.61
69909;BME280;57190;47.918;8.112;2023-01-30T00:22:57;91221.66;;;-5.98;76.41
69909;BME280;57190;47.918;8.112;2023-01-30T00:25:24;91211.97;;;-6.05;77.18
69909;BME280;57190;47.918;8.112;2023-01-30T00:27:50;91199.63;;;-6.11;76.80
69909;BME280;57190;47.918;8.112;2023-01-30T00:30:15;91195.69;;;-6.15;76.14
69909;BME280;57190;47.918;8.112;2023-01-30T00:32:41;91183.84;;;-6.18;76.38
69909;BME280;57190;47.918;8.112;2023-01-30T00:35:06;91185.28;;;-6.23;76.68
69909;BME280;57190;47.918;8.112;2023-01-30T00:37:32;91186.25;;;-6.24;76.30
69909;BME280;57190;47.918;8.112;2023-01-30T00:39:57;91191.59;;;-6.34;74.52
69909;BME280;57190;47.918;8.112;2023-01-30T00:42:23;91191.56;;;-6.42;75.14
69909;BME280;57190;47.918;8.112;2023-01-30T00:45:10;91188.50;;;-6.38;75.79
69909;BME280;57190;47.918;8.112;2023-01-30T00:47:54;91191.78;;;-6.36;76.99
69909;BME280;57190;47.918;8.112;2023-01-30T00:50:20;91187.56;;;-6.28;76.29
69909;BME280;57190;47.918;8.112;2023-01-30T00:52:45;91193.09;;;-6.23;76.91
69909;BME280;57190;47.918;8.112;2023-01-30T00:55:11;91192.13;;;-6.14;75.69
69909;BME280;57190;47.918;8.112;2023-01-30T00:57:36;91193.94;;;-6.06;75.94
69909;BME280;57190;47.918;8.112;2023-01-30T01:00:03;91184.53;;;-5.99;76.00
69909;BME280;57190;47.918;8.112;2023-01-30T01:02:30;91174.59;;;-5.95;76.68
69909;BME280;57190;47.918;8.112;2023-01-30T01:04:55;91169.72;;;-5.98;76.60
69909;BME280;57190;47.918;8.112;2023-01-30T01:07:20;91165.84;;;-5.94;76.46
69909;BME280;57190;47.918;8.112;2023-01-30T01:09:46;91161.78;;;-5.97;76.19
69909;BME280;57190;47.918;8.112;2023-01-30T01:12:11;91157.38;;;-5.96;75.84
69909;BME280;57190;47.918;8.112;2023-01-30T01:14:37;91153.66;;;-5.94;76.30
69909;BME280;57190;47.918;8.112;2023-01-30T01:17:02;91149.94;;;-6.00;75.42
69909;BME280;57190;47.918;8.112;2023-01-30T01:19:28;91151.41;;;-6.13;75.82
69909;BME280;57190;47.918;8.112;2023-01-30T01:21:54;91157.72;;;-6.08;75.74
69909;BME280;57190;47.918;8.112;2023-01-30T01:24:19;91145.22;;;-6.04;76.66
69909;BME280;57190;47.918;8.112;2023-01-30T01:26:44;91147.00;;;-5.96;76.39
69909;BME280;57190;47.918;8.112;2023-01-30T01:29:14;91146.19;;;-5.97;75.68
69909;BME280;57190;47.918;8.112;2023-01-30T01:31:40;91146.34;;;-5.98;75.54
69909;BME280;57190;47.918;8.112;2023-01-30T01:34:06;91148.47;;;-6.02;75.46
69909;BME280;57190;47.918;8.112;2023-01-30T01:36:31;91156.59;;;-6.05;76.28
69909;BME280;57190;47.918;8.112;2023-01-30T01:38:57;91163.25;;;-6.03;76.01
69909;BME280;57190;47.918;8.112;2023-01-30T01:41:22;91159.84;;;-6.03;76.63
69909;BME280;57190;47.918;8.112;2023-01-30T01:46:34;91172.81;;;-6.03;76.81
69909;BME280;57190;47.918;8.112;2023-01-30T01:49:27;91164.53;;;-6.07;76.43
69909;BME280;57190;47.918;8.112;2023-01-30T01:52:04;91176.09;;;-6.01;76.40
69909;BME280;57190;47.918;8.112;2023-01-30T01:54:49;91190.97;;;-5.95;76.37
69909;BME280;57190;47.918;8.112;2023-01-30T01:57:23;91191.94;;;-5.96;75.80
69909;BME280;57190;47.918;8.112;2023-01-30T02:00:02;91198.16;;;-5.89;76.29
69909;BME280;57190;47.918;8.112;2023-01-30T02:02:30;91213.41;;;-5.69;76.38
69909;BME280;57190;47.918;8.112;2023-01-30T02:04:57;91221.22;;;-5.53;76.34
69909;BME280;57190;47.918;8.112;2023-01-30T02:07:37;91239.28;;;-5.43;76.58
69909;BME280;57190;47.918;8.112;2023-01-30T02:10:07;91245.09;;;-5.41;75.90
69909;BME280;57190;47.918;8.112;2023-01-30T02:12:35;91253.56;;;-5.39;76.21
69909;BME280;57190;47.918;8.112;2023-01-30T02:15:02;91263.16;;;-5.39;76.52
69909;BME280;57190;47.918;8.112;2023-01-30T02:17:28;91258.94;;;-5.40;76.25
69909;BME280;57190;47.918;8.112;2023-01-30T02:20:00;91249.69;;;-5.34;76.39
69909;BME280;57190;47.918;8.112;2023-01-30T02:28:15;91240.75;;;-5.32;76.47
69909;BME280;57190;47.918;8.112;2023-01-30T02:31:06;91237.78;;;-5.37;76.56
69909;BME280;57190;47.918;8.112;2023-01-30T02:39:07;91226.13;;;-5.41;77.55
69909;BME280;57190;47.918;8.112;2023-01-30T02:45:15;91234.09;;;-5.43;77.09
69909;BME280;57190;47.918;8.112;2023-01-30T02:50:22;91231.78;;;-5.38;77.12
69909;BME280;57190;47.918;8.112;2023-01-30T02:52:50;91202.03;;;-5.35;76.84
69909;BME280;57190;47.918;8.112;2023-01-30T02:55:22;91202.53;;;-5.23;76.57
69909;BME280;57190;47.918;8.112;2023-01-30T02:57:48;91200.88;;;-5.16;76.22
69909;BME280;57190;47.918;8.112;2023-01-30T03:00:21;91199.28;;;-5.09;74.97
69909;BME280;57190;47.918;8.112;2023-01-30T03:03:22;91200.53;;;-5.05;74.27
69909;BME280;57190;47.918;8.112;2023-01-30T03:06:01;91195.81;;;-5.01;74.19
69909;BME280;57190;47.918;8.112;2023-01-30T03:08:48;91185.41;;;-5.01;73.79
69909;BME280;57190;47.918;8.112;2023-01-30T03:11:19;91205.28;;;-5.08;74.07
69909;BME280;57190;47.918;8.112;2023-01-30T03:13:58;91196.19;;;-5.21;74.05
69909;BME280;57190;47.918;8.112;2023-01-30T03:16:37;91214.53;;;-5.14;73.74
69909;BME280;57190;47.918;8.112;2023-01-30T03:19:05;91230.81;;;-5.12;73.31
69909;BME280;57190;47.918;8.112;2023-01-30T03:21:33;91232.09;;;-5.08;73.10
69909;BME280;57190;47.918;8.112;2023-01-30T03:23:59;91217.63;;;-5.02;72.48
69909;BME280;57190;47.918;8.112;2023-01-30T03:26:29;91196.47;;;-4.99;72.78
69909;BME280;57190;47.918;8.112;2023-01-30T03:28:57;91186.75;;;-5.05;72.55
69909;BME280;57190;47.918;8.112;2023-01-30T03:31:22;91181.06;;;-5.09;72.31
69909;BME280;57190;47.918;8.112;2023-01-30T03:33:48;91198.16;;;-5.23;72.39
69909;BME280;57190;47.918;8.112;2023-01-30T03:36:14;91187.59;;;-5.38;73.59
69909;BME280;57190;47.918;8.112;2023-01-30T03:38:39;91195.41;;;-5.38;73.52
69909;BME280;57190;47.918;8.112;2023-01-30T03:41:05;91192.00;;;-5.38;73.25
69909;BME280;57190;47.918;8.112;2023-01-30T03:43:31;91188.25;;;-5.35;74.25
69909;BME280;57190;47.918;8.112;2023-01-30T03:45:56;91180.09;;;-5.32;73.82
69909;BME280;57190;47.918;8.112;2023-01-30T03:48:21;91183.03;;;-5.35;73.97
69909;BME280;57190;47.918;8.112;2023-01-30T03:50:48;91183.03;;;-5.35;73.78
69909;BME280;57190;47.918;8.112;2023-01-30T03:53:13;91183.06;;;-5.44;74.05
69909;BME280;57190;47.918;8.112;2023-01-30T03:55:39;91173.63;;;-5.45;74.07
69909;BME280;57190;47.918;8.112;2023-01-30T03:58:04;91176.22;;;-5.45;74.65
69909;BME280;57190;47.918;8.112;2023-01-30T04:00:30;91182.41;;;-5.54;74.55
69909;BME280;57190;47.918;8.112;2023-01-30T04:02:55;91160.31;;;-5.66;74.27
69909;BME280;57190;47.918;8.112;2023-01-30T04:05:22;91161.44;;;-5.77;74.67
69909;BME280;57190;47.918;8.112;2023-01-30T04:07:48;91152.69;;;-5.76;74.37
69909;BME280;57190;47.918;8.112;2023-01-30T04:10:14;91141.47;;;-5.77;74.99
69909;BME280;57190;47.918;8.112;2023-01-30T04:12:41;91132.25;;;-5.88;74.40
69909;BME280;57190;47.918;8.112;2023-01-30T04:15:07;91134.66;;;-5.94;75.28
69909;BME280;57190;47.918;8.112;2023-01-30T04:17:33;91139.41;;;-6.06;74.17
69909;BME280;57190;47.918;8.112;2023-01-30T04:19:59;91152.50;;;-6.16;74.50
69909;BME280;57190;47.918;8.112;2023-01-30T04:22:24;91146.34;;;-6.23;75.07
69909;BME280;57190;47.918;8.112;2023-01-30T04:24:49;91147.66;;;-6.19;74.96
69909;BME280;57190;47.918;8.112;2023-01-30T04:27:15;91153.66;;;-6.19;75.76
69909;BME280;57190;47.918;8.112;2023-01-30T04:29:40;91151.53;;;-6.15;75.32
69909;BME280;57190;47.918;8.112;2023-01-30T04:32:07;91152.22;;;-6.05;75.42
69909;BME280;57190;47.918;8.112;2023-01-30T04:34:32;91153.34;;;-5.99;74.94
69909;BME280;57190;47.918;8.112;2023-01-30T04:36:58;91152.69;;;-6.01;74.47
69909;BME280;57190;47.918;8.112;2023-01-30T04:39:23;91155.31;;;-6.01;75.14
69909;BME280;57190;47.918;8.112;2023-01-30T04:41:48;91159.22;;;-6.05;75.67
69909;BME280;57190;47.918;8.112;2023-01-30T04:44:14;91160.97;;;-6.06;75.34
69909;BME280;57190;47.918;8.112;2023-01-30T04:46:39;91151.41;;;-6.13;74.56
69909;BME280;57190;47.918;8.112;2023-01-30T04:49:05;91144.72;;;-6.16;75.00
69909;BME280;57190;47.918;8.112;2023-01-30T04:51:30;91148.16;;;-6.16;75.39
69909;BME280;57190;47.918;8.112;2023-01-30T04:53:56;91151.06;;;-6.10;74.42
69909;BME280;57190;47.918;8.112;2023-01-30T04:56:21;91154.63;;;-6.03;74.73
69909;BME280;57190;47.918;8.112;2023-01-30T04:58:47;91161.63;;;-6.04;74.65
69909;BME280;57190;47.918;8.112;2023-01-30T05:01:24;91167.97;;;-6.06;74.49
69909;BME280;57190;47.918;8.112;2023-01-30T05:03:51;91161.94;;;-6.07;74.97
69909;BME280;57190;47.918;8.112;2023-01-30T05:06:17;91170.56;;;-6.06;75.05
69909;BME280;57190;47.918;8.112;2023-01-30T05:08:43;91180.28;;;-6.08;74.67
69909;BME280;57190;47.918;8.112;2023-01-30T05:11:08;91181.75;;;-6.14;73.72
69909;BME280;57190;47.918;8.112;2023-01-30T05:13:34;91179.63;;;-6.19;74.15
69909;BME280;57190;47.918;8.112;2023-01-30T05:15:59;91177.03;;;-6.19;74.64
69909;BME280;57190;47.918;8.112;2023-01-30T05:18:25;91172.00;;;-6.12;74.77
69909;BME280;57190;47.918;8.112;2023-01-30T05:20:50;91176.56;;;-6.06;75.04
69909;BME280;57190;47.918;8.112;2023-01-30T05:23:16;91178.69;;;-6.01;75.23
69909;BME280;57190;47.918;8.112;2023-01-30T05:25:41;91183.19;;;-5.95;74.56
69909;BME280;57190;47.918;8.112;2023-01-30T05:28:06;91185.31;;;-5.90;74.36
69909;BME280;57190;47.918;8.112;2023-01-30T05:30:32;91179.31;;;-5.82;74.55
69909;BME280;57190;47.918;8.112;2023-01-30T05:32:57;91168.75;;;-5.73;74.58
69909;BME280;57190;47.918;8.112;2023-01-30T05:35:23;91153.34;;;-5.66;75.11
69909;BME280;57190;47.918;8.112;2023-01-30T05:37:50;91156.25;;;-5.61;75.21
69909;BME280;57190;47.918;8.112;2023-01-30T05:40:15;91153.81;;;-5.62;75.11
69909;BME280;57190;47.918;8.112;2023-01-30T05:42:41;91164.22;;;-5.54;75.29
69909;BME280;57190;47.918;8.112;2023-01-30T05:45:07;91172.66;;;-5.60;75.03
69909;BME280;57190;47.918;8.112;2023-01-30T05:47:33;91157.69;;;-5.75;74.91
69909;BME280;57190;47.918;8.112;2023-01-30T05:49:58;91161.94;;;-5.82;75.60
69909;BME280;57190;47.918;8.112;2023-01-30T05:52:23;91160.16;;;-5.90;75.39
69909;BME280;57190;47.918;8.112;2023-01-30T05:54:49;91163.38;;;-5.96;75.62
69909;BME280;57190;47.918;8.112;2023-01-30T05:57:14;91158.56;;;-5.99;76.42
69909;BME280;57190;47.918;8.112;2023-01-30T05:59:40;91148.94;;;-5.98;75.77
69909;BME280;57190;47.918;8.112;2023-01-30T06:02:05;91167.13;;;-5.98;75.52
69909;BME280;57190;47.918;8.112;2023-01-30T06:04:31;91166.16;;;-6.06;75.99
69909;BME280;57190;47.918;8.112;2023-01-30T06:06:56;91182.59;;;-6.05;75.24
69909;BME280;57190;47.918;8.112;2023-01-30T06:09:22;91172.19;;;-6.05;75.34
69909;BME280;57190;47.918;8.112;2023-01-30T06:11:47;91188.28;;;-6.02;76.06
69909;BME280;57190;47.918;8.112;2023-01-30T06:14:13;91172.19;;;-6.05;76.18
69909;BME280;57190;47.918;8.112;2023-01-30T06:16:38;91160.66;;;-6.03;75.74
69909;BME280;57190;47.918;8.112;2023-01-30T06:19:03;91170.41;;;-6.05;76.92
69909;BME280;57190;47.918;8.112;2023-01-30T06:21:30;91197.81;;;-6.10;75.89
69909;BME280;57190;47.918;8.112;2023-01-30T06:23:55;91191.81;;;-6.11;77.21
69909;BME280;57190;47.918;8.112;2023-01-30T06:26:20;91208.22;;;-6.10;75.89
69909;BME280;57190;47.918;8.112;2023-01-30T06:28:46;91215.84;;;-6.09;76.15
69909;BME280;57190;47.918;8.112;2023-01-30T06:31:12;91210.66;;;-6.09;75.66
69909;BME280;57190;47.918;8.112;2023-01-30T06:33:38;91202.22;;;-6.11;76.65
69909;BME280;57190;47.918;8.112;2023-01-30T06:36:03;91205.47;;;-6.09;75.91
69909;BME280;57190;47.918;8.112;2023-01-30T06:38:29;91202.69;;;-6.07;77.00
69909;BME280;57190;47.918;8.112;2023-01-30T06:40:54;91192.94;;;-5.97;76.66
69909;BME280;57190;47.918;8.112;2023-01-30T06:43:20;91199.13;;;-5.90;76.56
69909;BME280;57190;47.918;8.112;2023-01-30T06:45:45;91205.97;;;-5.80;75.92
69909;BME280;57190;47.918;8.112;2023-01-30T06:48:11;91208.88;;;-5.75;75.88
69909;BME280;57190;47.918;8.112;2023-01-30T06:50:36;91205.78;;;-5.71;76.52
69909;BME280;57190;47.918;8.112;2023-01-30T06:53:04;91212.63;;;-5.70;76.31
69909;BME280;57190;47.918;8.112;2023-01-30T06:55:31;91202.53;;;-5.64;76.27
69909;BME280;57190;47.918;8.112;2023-01-30T06:58:06;91214.56;;;-5.55;76.11
69909;BME280;57190;47.918;8.112;2023-01-30T07:00:32;91208.41;;;-5.54;76.45
69909;BME280;57190;47.918;8.112;2023-01-30T07:02:58;91209.72;;;-5.50;76.56
69909;BME280;57190;47.918;8.112;2023-01-30T07:05:24;91203.03;;;-5.44;76.30
69909;BME280;57190;47.918;8.112;2023-01-30T07:07:50;91190.03;;;-5.44;75.74
69909;BME280;57190;47.918;8.112;2023-01-30T07:10:16;91183.72;;;-5.42;76.07
69909;BME280;57190;47.918;8.112;2023-01-30T07:12:41;91188.09;;;-5.42;76.02
69909;BME280;57190;47.918;8.112;2023-01-30T07:15:07;91187.09;;;-5.41;76.08
69909;BME280;57190;47.918;8.112;2023-01-30T07:17:33;91181.25;;;-5.35;75.79
69909;BME280;57190;47.918;8.112;2023-01-30T07:19:58;91190.34;;;-5.31;75.65
69909;BME280;57190;47.918;8.112;2023-01-30T07:22:24;91192.47;;;-5.26;75.54
69909;BME280;57190;47.918;8.112;2023-01-30T07:24:50;91190.81;;;-5.11;75.84
69909;BME280;57190;47.918;8.112;2023-01-30T07:27:15;91170.81;;;-5.10;76.07
69909;BME280;57190;47.918;8.112;2023-01-30T07:29:41;91156.16;;;-5.03;75.22
69909;BME280;57190;47.918;8.112;2023-01-30T07:32:13;91158.41;;;-5.00;75.84
69909;BME280;57190;47.918;8.112;2023-01-30T07:34:39;91148.47;;;-4.88;75.44
69909;BME280;57190;47.918;8.112;2023-01-30T07:37:04;91141.13;;;-4.84;75.00
69909;BME280;57190;47.918;8.112;2023-01-30T07:39:30;91149.06;;;-4.69;74.54
69909;BME280;57190;47.918;8.112;2023-01-30T07:41:55;91149.59;;;-4.43;73.65
69909;BME280;57190;47.918;8.112;2023-01-30T07:44:21;91151.59;;;-3.98;72.73
69909;BME280;57190;47.918;8.112;2023-01-30T07:46:46;91158.63;;;-2.84;70.16
69909;BME280;57190;47.918;8.112;2023-01-30T07:49:12;91144.53;;;-0.16;63.40
69909;BME280;57190;47.918;8.112;2023-01-30T07:51:37;91153.81;;;-0.90;64.56
69909;BME280;57190;47.918;8.112;2023-01-30T07:54:03;91162.94;;;-1.95;66.06
69909;BME280;57190;47.918;8.112;2023-01-30T07:56:29;91158.34;;;-2.29;68.73
69909;BME280;57190;47.918;8.112;2023-01-30T07:58:55;91161.03;;;-2.23;69.88
69909;BME280;57190;47.918;8.112;2023-01-30T08:01:21;91151.59;;;-2.02;69.86
69909;BME280;57190;47.918;8.112;2023-01-30T08:03:47;91167.31;;;-1.80;69.36
69909;BME280;57190;47.918;8.112;2023-01-30T08:06:16;91172.63;;;-0.73;68.69
69909;BME280;57190;47.918;8.112;2023-01-30T08:08:42;91165.66;;;4.82;58.06
69909;BME280;57190;47.918;8.112;2023-01-30T08:11:08;91171.22;;;9.85;51.60
69909;BME280;57190;47.918;8.112;2023-01-30T08:13:34;91167.34;;;7.87;48.78
69909;BME280;57190;47.918;8.112;2023-01-30T08:16:00;91171.09;;;4.38;53.37
69909;BME280;57190;47.918;8.112;2023-01-30T08:18:30;91171.59;;;2.26;57.10
69909;BME280;57190;47.918;8.112;2023-01-30T08:20:56;91179.31;;;1.15;60.24
69909;BME280;57190;47.918;8.112;2023-01-30T08:23:22;91176.78;;;0.33;61.05
69909;BME280;57190;47.918;8.112;2023-01-30T08:25:47;91175.31;;;-0.32;63.00
69909;BME280;57190;47.918;8.112;2023-01-30T08:28:13;91190.50;;;-0.55;64.02
69909;BME280;57190;47.918;8.112;2023-01-30T08:30:40;91193.50;;;-0.58;65.10
69909;BME280;57190;47.918;8.112;2023-01-30T08:33:06;91190.97;;;-0.73;64.76
69909;BME280;57190;47.918;8.112;2023-01-30T08:35:31;91192.75;;;-0.81;65.27
69909;BME280;57190;47.918;8.112;2023-01-30T08:37:57;91191.91;;;-0.88;65.55
69909;BME280;57190;47.918;8.112;2023-01-30T08:40:22;91174.06;;;-0.71;64.92
69909;BME280;57190;47.918;8.112;2023-01-30T08:42:48;91178.94;;;-0.33;65.21
69909;BME280;57190;47.918;8.112;2023-01-30T08:45:13;91183.88;;;-0.16;64.59
69909;BME280;57190;47.918;8.112;2023-01-30T08:47:39;91190.22;;;0.10;65.04
69909;BME280;57190;47.918;8.112;2023-01-30T08:50:04;91184.16;;;4.15;57.80
69909;BME280;57190;47.918;8.112;2023-01-30T08:52:31;91185.34;;;3.56;56.63
69909;BME280;57190;47.918;8.112;2023-01-30T08:54:57;91181.94;;;2.66;58.48
69909;BME280;57190;47.918;8.112;2023-01-30T08:57:22;91198.41;;;2.87;57.73
69909;BME280;57190;47.918;8.112;2023-01-30T08:59:48;91205.63;;;3.56;56.05
69909;BME280;57190;47.918;8.112;2023-01-30T09:02:15;91204.13;;;4.78;54.26
69909;BME280;57190;47.918;8.112;2023-01-30T09:04:41;91211.84;;;6.48;52.69
69909;BME280;57190;47.918;8.112;2023-01-30T09:07:07;91207.41;;;9.81;47.03
69909;BME280;57190;47.918;8.112;2023-01-30T09:09:33;91199.25;;;11.47;42.98
69909;BME280;57190;47.918;8.112;2023-01-30T09:11:58;91199.72;;;11.18;42.36
69909;BME280;57190;47.918;8.112;2023-01-30T09:14:24;91210.94;;;13.11;38.50
69909;BME280;57190;47.918;8.112;2023-01-30T09:16:49;91218.50;;;12.94;38.92
69909;BME280;57190;47.918;8.112;2023-01-30T09:19:23;91222.84;;;12.48;38.93
69909;BME280;57190;47.918;8.112;2023-01-30T09:21:50;91224.63;;;11.44;41.82
69909;BME280;57190;47.918;8.112;2023-01-30T09:24:16;91226.50;;;9.40;43.62
69909;BME280;57190;47.918;8.112;2023-01-30T09:26:42;91236.72;;;7.91;46.86
69909;BME280;57190;47.918;8.112;2023-01-30T09:29:13;91213.38;;;7.42;48.64
69909;BME280;57190;47.918;8.112;2023-01-30T09:31:39;91220.25;;;6.97;49.67
69909;BME280;57190;47.918;8.112;2023-01-30T09:34:05;91225.50;;;6.80;50.62
69909;BME280;57190;47.918;8.112;2023-01-30T09:36:31;91217.59;;;5.97;52.12
69909;BME280;57190;47.918;8.112;2023-01-30T09:38:56;91216.31;;;5.76;53.20
69909;BME280;57190;47.918;8.112;2023-01-30T09:47:11;91207.63;;;4.91;55.75
69909;BME280;57190;47.918;8.112;2023-01-30T09:52:56;91225.47;;;6.16;51.80
69909;BME280;57190;47.918;8.112;2023-01-30T09:55:28;91224.53;;;6.22;52.01
69909;BME280;57190;47.918;8.112;2023-01-30T09:57:56;91206.63;;;5.34;53.88
69909;BME280;57190;47.918;8.112;2023-01-30T10:00:36;91205.19;;;4.59;56.95
69909;BME280;57190;47.918;8.112;2023-01-30T10:03:15;91202.78;;;4.20;57.74
69909;BME280;57190;47.918;8.112;2023-01-30T10:05:43;91202.72;;;4.08;58.40
69909;BME280;57190;47.918;8.112;2023-01-30T10:11:00;91197.31;;;3.77;58.94
69909;BME280;57190;47.918;8.112;2023-01-30T10:16:17;91193.41;;;4.05;58.63
69909;BME280;57190;47.918;8.112;2023-01-30T10:26:47;91215.00;;;3.96;59.07
69909;BME280;57190;47.918;8.112;2023-01-30T10:29:27;91203.44;;;3.97;59.07
69909;BME280;57190;47.918;8.112;2023-01-30T10:32:00;91193.81;;;4.02;58.92
69909;BME280;57190;47.918;8.112;2023-01-30T10:34:41;91170.28;;;3.82;59.34
69909;BME280;57190;47.918;8.112;2023-01-30T10:37:19;91156.72;;;3.78;59.62
69909;BME280;57190;47.918;8.112;2023-01-30T10:43:16;91174.84;;;3.50;60.28
69909;BME280;57190;47.918;8.112;2023-01-30T10:46:06;91162.94;;;3.40;60.68
69909;BME280;57190;47.918;8.112;2023-01-30T10:52:01;91164.41;;;3.36;60.89
69909;BME280;57190;47.918;8.112;2023-01-30T10:54:36;91176.44;;;3.00;62.16
69909;BME280;57190;47.918;8.112;2023-01-30T10:57:22;91157.34;;;2.79;62.74
69909;BME280;57190;47.918;8.112;2023-01-30T11:00:42;91151.81;;;2.88;63.18
69909;BME280;57190;47.918;8.112;2023-01-30T11:06:00;91148.72;;;2.59;62.85
69909;BME280;57190;47.918;8.112;2023-01-30T11:08:32;91134.06;;;2.70;63.00
69909;BME280;57190;47.918;8.112;2023-01-30T11:10:58;91131.63;;;2.75;62.55
69909;BME280;57190;47.918;8.112;2023-01-30T11:13:32;91128.00;;;2.69;62.59
69909;BME280;57190;47.918;8.112;2023-01-30T11:16:07;91117.81;;;2.79;62.48
69909;BME280;57190;47.918;8.112;2023-01-30T11:18:47;91118.06;;;2.71;62.57
69909;BME280;57190;47.918;8.112;2023-01-30T11:21:21;91116.22;;;2.72;62.46
69909;BME280;57190;47.918;8.112;2023-01-30T11:23:48;91119.53;;;2.60;61.82
69909;BME280;57190;47.918;8.112;2023-01-30T11:26:29;91116.78;;;2.48;62.17
69909;BME280;57190;47.918;8.112;2023-01-30T11:28:55;91101.41;;;2.45;62.45
69909;BME280;57190;47.918;8.112;2023-01-30T11:31:26;91091.91;;;2.44;61.99
69909;BME280;57190;47.918;8.112;2023-01-30T11:34:02;91082.59;;;2.42;61.43
69909;BME280;57190;47.918;8.112;2023-01-30T11:36:32;91084.00;;;2.44;61.75
69909;BME280;57190;47.918;8.112;2023-01-30T11:39:05;91093.81;;;2.30;61.83
69909;BME280;57190;47.918;8.112;2023-01-30T11:44:29;91093.59;;;2.32;62.89
69909;BME280;57190;47.918;8.112;2023-01-30T11:47:08;91111.09;;;2.19;62.77
69909;BME280;57190;47.918;8.112;2023-01-30T11:49:42;91096.84;;;1.88;62.77
69909;BME280;57190;47.918;8.112;2023-01-30T11:52:11;91098.84;;;1.93;63.10
69909;BME280;57190;47.918;8.112;2023-01-30T11:54:39;91092.22;;;1.84;63.16
69909;BME280;57190;47.918;8.112;2023-01-30T11:57:12;91087.09;;;1.96;63.93
69909;BME280;57190;47.918;8.112;2023-01-30T11:59:43;91078.38;;;2.02;62.78
69909;BME280;57190;47.918;8.112;2023-01-30T12:02:20;91077.41;;;1.89;62.87
69909;BME280;57190;47.918;8.112;2023-01-30T12:04:53;91082.72;;;1.83;62.92
69909;BME280;57190;47.918;8.112;2023-01-30T12:07:23;91075.06;;;1.68;62.67
69909;BME280;57190;47.918;8.112;2023-01-30T12:09:50;91076.94;;;1.61;63.24
69909;BME280;57190;47.918;8.112;2023-01-30T12:12:48;91079.09;;;1.70;63.19
69909;BME280;57190;47.918;8.112;2023-01-30T12:15:28;91089.22;;;1.73;62.33
69909;BME280;57190;47.918;8.112;2023-01-30T12:18:36;91102.00;;;1.56;63.02
69909;BME280;57190;47.918;8.112;2023-01-30T12:21:25;91102.44;;;1.47;63.62
69909;BME280;57190;47.918;8.112;2023-01-30T12:23:59;91087.13;;;1.30;63.58
69909;BME280;57190;47.918;8.112;2023-01-30T12:26:33;91086.94;;;1.12;64.96
69909;BME280;57190;47.918;8.112;2023-01-30T12:29:27;91100.91;;;1.05;64.71
69909;BME280;57190;47.918;8.112;2023-01-30T12:34:33;91101.13;;;1.04;65.23
69909;BME280;57190;47.918;8.112;2023-01-30T12:40:54;91104.72;;;1.16;65.54
69909;BME280;57190;47.918;8.112;2023-01-30T12:43:34;91102.91;;;1.17;65.93
69909;BME280;57190;47.918;8.112;2023-01-30T12:51:50;91091.53;;;1.36;67.47
69909;BME280;57190;47.918;8.112;2023-01-30T13:03:08;91069.31;;;1.32;67.44
69909;BME280;57190;47.918;8.112;2023-01-30T13:11:42;91072.75;;;1.33;68.15
69909;BME280;57190;47.918;8.112;2023-01-30T13:14:26;91075.97;;;1.35;68.06
69909;BME280;57190;47.918;8.112;2023-01-30T13:25:12;91058.47;;;1.02;68.11
69909;BME280;57190;47.918;8.112;2023-01-30T13:27:51;91054.03;;;0.96;68.57
69909;BME280;57190;47.918;8.112;2023-01-30T13:30:18;91065.53;;;1.01;68.22
69909;BME280;57190;47.918;8.112;2023-01-30T13:32:55;91065.94;;;0.98;69.18
69909;BME280;57190;47.918;8.112;2023-01-30T13:35:28;91050.97;;;0.99;68.93
69909;BME280;57190;47.918;8.112;2023-01-30T13:37:56;91056.44;;;0.90;69.70
69909;BME280;57190;47.918;8.112;2023-01-30T13:40:26;91055.44;;;0.91;70.71
69909;BME280;57190;47.918;8.112;2023-01-30T13:42:58;91054.63;;;1.04;70.63
69909;BME280;57190;47.918;8.112;2023-01-30T13:45:32;91054.81;;;1.09;70.88
69909;BME280;57190;47.918;8.112;2023-01-30T14:09:41;91078.00;;;1.33;74.24
69909;BME280;57190;47.918;8.112;2023-01-30T14:12:23;91067.09;;;1.29;75.08
69909;BME280;57190;47.918;8.112;2023-01-30T14:18:18;91073.19;;;1.16;75.73
69909;BME280;57190;47.918;8.112;2023-01-30T14:20:47;91072.56;;;1.14;75.82
69909;BME280;57190;47.918;8.112;2023-01-30T14:23:33;91077.69;;;0.96;76.81
69909;BME280;57190;47.918;8.112;2023-01-30T14:26:00;91089.59;;;0.91;76.80
69909;BME280;57190;47.918;8.112;2023-01-30T14:30:58;91080.91;;;0.91;76.87
69909;BME280;57190;47.918;8.112;2023-01-30T14:38:31;91089.38;;;1.00;76.59
69909;BME280;57190;47.918;8.112;2023-01-30T14:43:31;91100.72;;;0.87;77.63
69909;BME280;57190;47.918;8.112;2023-01-30T14:46:00;91099.69;;;0.94;77.49
69909;BME280;57190;47.918;8.112;2023-01-30T14:48:30;91110.59;;;0.91;77.79
69909;BME280;57190;47.918;8.112;2023-01-30T14:51:20;91120.09;;;0.86;77.79
69909;BME280;57190;47.918;8.112;2023-01-30T14:54:01;91115.03;;;0.77;78.68
69909;BME280;57190;47.918;8.112;2023-01-30T14:56:37;91115.88;;;0.78;77.89
69909;BME280;57190;47.918;8.112;2023-01-30T14:59:31;91116.06;;;0.70;78.13
69909;BME280;57190;47.918;8.112;2023-01-30T15:02:25;91123.75;;;0.58;78.08
69909;BME280;57190;47.918;8.112;2023-01-30T15:10:26;91129.97;;;0.43;78.85
69909;BME280;57190;47.918;8.112;2023-01-30T15:16:02;91145.69;;;0.43;78.92
69909;BME280;57190;47.918;8.112;2023-01-30T15:32:33;91181.19;;;0.19;79.86
69909;BME280;57190;47.918;8.112;2023-01-30T15:42:47;91192.44;;;0.13;79.87
69909;BME280;57190;47.918;8.112;2023-01-30T15:48:11;91189.81;;;0.06;79.99
69909;BME280;57190;47.918;8.112;2023-01-30T15:50:47;91193.59;;;-0.03;80.14
69909;BME280;57190;47.918;8.112;2023-01-30T15:53:14;91187.94;;;-0.07;80.29
69909;BME280;57190;47.918;8.112;2023-01-30T15:55:42;91193.78;;;-0.11;80.21